KAWM/AWM METAR and TAF weather

Enter ICAO airport designator
Station Type Date Time Source
KAWM METAR 2019/02/20 21:53 UTC NOAA

KAWM 202153Z AUTO 25005KT 10SM OVC017 11/07 A2992 RMK AO2 SLP133 T01110072 $


Station Type Date Time Source
KAWM Decoded METAR 2019/02/20 21:53 UTC NOAA

WEST MEMPHIS MUNICIPAL AIRPORT, AR, United States (KAWM) 35-08N 090-14W
Feb 20, 2019 - 04:53 PM EST / 2019.02.20 2153 UTC
Wind: from the WSW (250 degrees) at 6 MPH (5 KT):0
Visibility: 10 mile(s):0
Sky conditions: overcast
Temperature: 52.0 F (11.1 C)
Dew Point: 45.0 F (7.2 C)
Relative Humidity: 76%
Pressure (altimeter): 29.92 in. Hg (1013 hPa)
ob: KAWM 202153Z AUTO 25005KT 10SM OVC017 11/07 A2992 RMK AO2 SLP133 T01110072
cycle: 22

Station Type Date Time Source
KAWM TAF UTC NOAA

Error!


Example: see airport list